Time;durP1;ratioP1;P1;durP2;ratioP2;P2;SDS_P1;SDS_P2;PMS_P1;PMS_P2;Temp;Humidity;BMP_temperature;BMP_pressure;BME280_temperature;BME280_humidity;BME280_pressure;Samples;Min_cycle;Max_cycle;Signal;HPM_P1;HPM_P2
2023/06/06 00:02:21;;;;;;;3.87;3.30;;;18.80;99.90;;;;;;5072346;28;20960;-69
2023/06/06 00:04:49;;;;;;;3.27;2.97;;;18.90;99.90;;;;;;5072183;28;20217;-69
2023/06/06 00:07:16;;;;;;;3.50;2.90;;;18.90;99.90;;;;;;5072221;28;20183;-69
2023/06/06 00:09:42;;;;;;;2.97;2.70;;;18.90;99.90;;;;;;5071745;28;20458;-68
2023/06/06 00:12:12;;;;;;;3.50;3.20;;;18.90;99.90;;;;;;5071862;28;20409;-68
2023/06/06 00:14:39;;;;;;;3.03;2.73;;;18.80;99.90;;;;;;5054929;28;20182;-67
2023/06/06 00:17:04;;;;;;;2.97;2.67;;;18.70;99.90;;;;;;5072241;28;20412;-68
2023/06/06 00:19:32;;;;;;;3.47;3.17;;;18.60;99.90;;;;;;5053833;28;20449;-68
2023/06/06 00:21:58;;;;;;;3.20;2.80;;;18.50;99.90;;;;;;5072279;28;20196;-67
2023/06/06 00:24:24;;;;;;;3.43;3.13;;;18.50;99.90;;;;;;5071775;28;20929;-68
2023/06/06 00:26:50;;;;;;;3.50;2.63;;;18.40;99.90;;;;;;5072000;28;20165;-69
2023/06/06 00:29:16;;;;;;;2.93;2.73;;;18.40;99.90;;;;;;5072176;28;20404;-68
2023/06/06 00:31:41;;;;;;;3.20;2.97;;;18.20;99.90;;;;;;5071859;28;20568;-68
2023/06/06 00:34:07;;;;;;;3.20;2.90;;;18.00;99.90;;;;;;5072046;28;20682;-69
2023/06/06 00:36:32;;;;;;;3.30;3.00;;;18.00;99.90;;;;;;5072056;28;20224;-67
2023/06/06 00:38:58;;;;;;;2.90;2.60;;;17.90;99.90;;;;;;5071710;28;20166;-68
2023/06/06 00:41:23;;;;;;;2.80;2.60;;;18.00;99.90;;;;;;5071351;28;20186;-69
2023/06/06 00:43:49;;;;;;;5.67;3.40;;;18.10;99.90;;;;;;5071967;28;20232;-68
2023/06/06 00:46:17;;;;;;;3.40;2.70;;;18.20;99.90;;;;;;5071744;28;20166;-69
2023/06/06 00:48:43;;;;;;;3.63;3.00;;;18.30;99.90;;;;;;5053862;28;20166;-68
2023/06/06 00:51:10;;;;;;;3.50;3.20;;;18.20;99.90;;;;;;5071823;28;20428;-67
2023/06/06 00:53:36;;;;;;;3.37;3.10;;;18.10;99.90;;;;;;5071797;28;20404;-68
2023/06/06 00:56:03;;;;;;;3.80;3.20;;;18.00;99.90;;;;;;5053816;28;20839;-67
2023/06/06 00:58:30;;;;;;;3.30;3.00;;;17.90;99.90;;;;;;5071745;28;20767;-69
2023/06/06 01:00:56;;;;;;;3.80;3.40;;;17.80;99.90;;;;;;5071907;28;20424;-67
2023/06/06 01:03:24;;;;;;;3.17;2.83;;;17.80;99.90;;;;;;5072158;28;20738;-69
2023/06/06 01:05:53;;;;;;;6.50;3.53;;;17.90;99.90;;;;;;5071962;28;20473;-68
2023/06/06 01:08:20;;;;;;;3.70;2.93;;;17.80;99.90;;;;;;5071683;28;20397;-68
2023/06/06 01:10:46;;;;;;;4.23;3.00;;;17.70;99.90;;;;;;5071304;28;20428;-69
2023/06/06 01:13:41;;;;;;;3.37;3.07;;;17.60;99.90;;;;;;5071200;28;20403;-68
2023/06/06 01:16:13;;;;;;;3.57;3.27;;;17.40;99.90;;;;;;5071890;28;20424;-67
2023/06/06 01:18:41;;;;;;;3.70;3.40;;;17.20;99.90;;;;;;5071814;28;20396;-68
2023/06/06 01:21:07;;;;;;;3.80;3.17;;;17.10;99.90;;;;;;5071338;28;20444;-68
2023/06/06 01:23:34;;;;;;;3.80;3.50;;;17.20;99.90;;;;;;5071392;28;20487;-68
2023/06/06 01:26:05;;;;;;;4.10;3.27;;;17.20;99.90;;;;;;5071300;28;20409;-68
2023/06/06 01:28:31;;;;;;;3.80;3.40;;;17.20;99.90;;;;;;5071532;28;20385;-68
2023/06/06 01:30:57;;;;;;;3.77;3.23;;;17.10;99.90;;;;;;5073871;28;20480;-68
2023/06/06 01:33:52;;;;;;;3.80;3.10;;;17.10;99.90;;;;;;5074910;28;20416;-68
2023/06/06 01:36:31;;;;;;;3.03;2.70;;;17.00;99.90;;;;;;5074998;28;20141;-69
2023/06/06 01:39:11;;;;;;;3.17;2.97;;;17.00;99.90;;;;;;5074829;28;20411;-68
2023/06/06 01:41:38;;;;;;;3.83;3.53;;;17.00;99.90;;;;;;5074745;28;20489;-68
2023/06/06 01:44:05;;;;;;;3.13;2.83;;;16.90;99.90;;;;;;5074891;28;20447;-68
2023/06/06 01:46:32;;;;;;;3.73;3.20;;;16.80;99.90;;;;;;5056773;28;20415;-69
2023/06/06 01:48:57;;;;;;;4.23;3.43;;;16.70;99.90;;;;;;5074716;28;20406;-68
2023/06/06 01:51:27;;;;;;;3.80;3.50;;;16.80;99.90;;;;;;5074667;28;20419;-68
2023/06/06 01:53:56;;;;;;;3.97;3.57;;;16.80;99.90;;;;;;5074394;28;20415;-68
2023/06/06 01:56:23;;;;;;;4.83;3.80;;;16.70;99.90;;;;;;5074412;28;20407;-69
2023/06/06 01:58:48;;;;;;;3.60;3.30;;;16.70;99.90;;;;;;5074220;28;20487;-67
2023/06/06 02:01:14;;;;;;;4.53;3.67;;;16.70;99.90;;;;;;5074464;28;20531;-69
2023/06/06 02:03:41;;;;;;;4.63;3.60;;;16.80;99.90;;;;;;5056414;28;20208;-69
2023/06/06 02:06:07;;;;;;;6.00;3.50;;;16.80;99.90;;;;;;5074892;28;20161;-68
2023/06/06 02:08:32;;;;;;;4.03;3.70;;;16.80;99.90;;;;;;5074092;28;20491;-69
2023/06/06 02:10:59;;;;;;;3.97;3.00;;;16.80;99.90;;;;;;5073759;28;20542;-68
2023/06/06 02:13:26;;;;;;;4.00;3.60;;;16.70;99.90;;;;;;5073977;28;20162;-68
2023/06/06 02:15:52;;;;;;;4.63;3.30;;;16.60;99.90;;;;;;5074006;28;20404;-68
2023/06/06 02:18:17;;;;;;;3.97;3.67;;;16.60;99.90;;;;;;5074232;28;20407;-68
2023/06/06 02:20:43;;;;;;;3.90;3.17;;;16.60;99.90;;;;;;5073826;28;20450;-69
2023/06/06 02:23:09;;;;;;;4.17;3.23;;;16.60;99.90;;;;;;5074017;28;20178;-68
2023/06/06 02:25:37;;;;;;;4.60;3.50;;;16.60;99.90;;;;;;5073877;28;20202;-69
2023/06/06 02:28:03;;;;;;;4.10;3.80;;;16.40;99.90;;;;;;5073765;28;20446;-69
2023/06/06 02:30:29;;;;;;;5.33;4.30;;;16.50;99.90;;;;;;5073724;28;20419;-67
2023/06/06 02:32:56;;;;;;;4.57;3.33;;;16.40;99.90;;;;;;5073977;28;20434;-68
2023/06/06 02:35:22;;;;;;;3.90;3.47;;;16.30;99.90;;;;;;5074049;28;20185;-67
2023/06/06 02:37:47;;;;;;;4.27;3.87;;;16.30;99.90;;;;;;5073684;28;20454;-68
2023/06/06 02:40:13;;;;;;;4.73;3.20;;;16.20;99.90;;;;;;5073436;28;20514;-69
2023/06/06 02:42:39;;;;;;;4.20;3.43;;;16.10;99.90;;;;;;5073052;28;20191;-69
2023/06/06 02:45:09;;;;;;;3.67;3.37;;;16.10;99.90;;;;;;5074120;28;20656;-68
2023/06/06 02:47:35;;;;;;;3.90;3.50;;;16.20;99.90;;;;;;5073444;28;20244;-68
2023/06/06 02:50:02;;;;;;;4.20;3.80;;;16.20;99.90;;;;;;5073692;28;20426;-68
2023/06/06 02:52:28;;;;;;;4.20;3.80;;;16.10;99.90;;;;;;5073693;28;20416;-69
2023/06/06 02:54:54;;;;;;;9.73;4.07;;;16.10;99.90;;;;;;5073077;28;20463;-68
2023/06/06 02:57:22;;;;;;;3.73;3.33;;;16.10;99.90;;;;;;5073659;28;20547;-69
2023/06/06 02:59:48;;;;;;;4.20;3.90;;;16.20;99.90;;;;;;5074151;28;20459;-70
2023/06/06 03:02:18;;;;;;;4.27;3.87;;;16.20;99.90;;;;;;5073271;28;20448;-69
2023/06/06 03:04:44;;;;;;;4.83;3.80;;;16.20;99.90;;;;;;5073644;28;20282;-69
2023/06/06 03:07:10;;;;;;;4.07;3.67;;;16.20;99.90;;;;;;5073287;28;20417;-69
2023/06/06 03:09:37;;;;;;;4.83;4.33;;;16.20;99.90;;;;;;5072957;28;20425;-69
2023/06/06 03:12:03;;;;;;;4.60;4.20;;;16.20;99.90;;;;;;5072921;28;20422;-69
2023/06/06 03:14:28;;;;;;;3.50;3.20;;;16.20;99.90;;;;;;5073314;28;20434;-69
2023/06/06 03:16:56;;;;;;;4.60;3.90;;;16.20;99.90;;;;;;5073084;28;20469;-68
2023/06/06 03:19:25;;;;;;;6.10;4.60;;;16.10;99.90;;;;;;5073241;28;20170;-68
2023/06/06 03:21:51;;;;;;;5.07;3.83;;;16.20;99.90;;;;;;5072638;28;20524;-68
2023/06/06 03:24:17;;;;;;;4.53;4.13;;;16.20;99.90;;;;;;5054562;28;20505;-68
2023/06/06 03:26:50;;;;;;;4.20;3.80;;;16.10;99.90;;;;;;5072993;28;20407;-68
2023/06/06 03:29:15;;;;;;;5.30;3.53;;;16.10;99.90;;;;;;5055659;28;20149;-68
2023/06/06 03:31:41;;;;;;;4.33;3.83;;;16.10;99.90;;;;;;5072667;28;20433;-67
2023/06/06 03:34:07;;;;;;;4.17;3.83;;;16.00;99.90;;;;;;5072641;28;20181;-69
2023/06/06 03:36:33;;;;;;;6.60;3.87;;;16.00;99.90;;;;;;5072654;28;20198;-68
2023/06/06 03:39:00;;;;;;;5.43;4.40;;;16.00;99.90;;;;;;5072743;28;20417;-69
2023/06/06 03:41:26;;;;;;;3.93;3.63;;;15.90;99.90;;;;;;5072226;28;20445;-68
2023/06/06 03:43:51;;;;;;;4.30;3.90;;;15.80;99.90;;;;;;5072263;28;20451;-68
2023/06/06 03:46:17;;;;;;;4.47;4.07;;;15.90;99.90;;;;;;5072576;28;20222;-68
2023/06/06 03:48:42;;;;;;;5.50;4.37;;;15.90;99.90;;;;;;5072499;28;20172;-68
2023/06/06 03:51:08;;;;;;;4.87;3.90;;;15.90;99.90;;;;;;5072654;28;20227;-69
2023/06/06 03:53:34;;;;;;;4.50;4.13;;;16.00;99.90;;;;;;5071870;28;20461;-68
2023/06/06 03:56:00;;;;;;;3.87;3.50;;;16.00;99.90;;;;;;5072231;28;20274;-69
2023/06/06 03:58:25;;;;;;;3.93;3.63;;;16.10;99.90;;;;;;5054172;28;20414;-68
2023/06/06 04:00:51;;;;;;;4.97;4.57;;;16.20;99.90;;;;;;5072254;28;20686;-68
2023/06/06 04:03:17;;;;;;;4.40;4.00;;;16.30;99.90;;;;;;5072400;28;20173;-68
2023/06/06 04:05:44;;;;;;;6.50;4.03;;;16.30;99.90;;;;;;5072517;28;20823;-68
2023/06/06 04:08:10;;;;;;;4.60;4.10;;;16.30;99.90;;;;;;5072222;28;20181;-68
2023/06/06 04:10:36;;;;;;;4.90;4.50;;;16.30;99.90;;;;;;5072100;28;20428;-68
2023/06/06 04:13:02;;;;;;;4.73;4.17;;;16.10;99.90;;;;;;5072018;28;20173;-68
2023/06/06 04:15:28;;;;;;;4.27;3.87;;;16.10;99.90;;;;;;5072188;28;20172;-69
2023/06/06 04:17:54;;;;;;;4.20;3.63;;;16.10;99.90;;;;;;5071733;28;20442;-68
2023/06/06 04:20:19;;;;;;;4.23;3.83;;;16.20;99.90;;;;;;5072073;28;20214;-68
2023/06/06 04:22:45;;;;;;;5.30;4.20;;;16.20;99.90;;;;;;5072356;28;20935;-67
2023/06/06 04:25:14;;;;;;;6.53;4.57;;;16.10;99.90;;;;;;5071782;28;20330;-68
2023/06/06 04:27:40;;;;;;;10.97;5.00;;;16.10;99.90;;;;;;5071890;28;20203;-68
2023/06/06 04:30:07;;;;;;;4.80;4.40;;;16.20;99.90;;;;;;5072088;28;20425;-68
2023/06/06 04:32:32;;;;;;;4.30;3.90;;;16.50;99.90;;;;;;5072100;28;20418;-68
2023/06/06 04:34:58;;;;;;;4.37;3.90;;;16.60;99.90;;;;;;5072295;28;20408;-68
2023/06/06 04:37:24;;;;;;;6.83;4.00;;;16.70;99.90;;;;;;5072776;28;20178;-68
2023/06/06 04:39:52;;;;;;;5.50;4.57;;;16.70;99.90;;;;;;5071813;28;20518;-69
2023/06/06 04:42:20;;;;;;;4.40;4.10;;;16.70;99.90;;;;;;5053381;28;20431;-69
2023/06/06 04:44:46;;;;;;;5.13;4.27;;;16.70;99.90;;;;;;5071684;28;20861;-68
2023/06/06 04:47:14;;;;;;;4.73;4.33;;;16.80;99.90;;;;;;5071748;28;20409;-68
2023/06/06 04:49:40;;;;;;;6.57;4.20;;;16.80;99.90;;;;;;5072082;28;20291;-69
2023/06/06 04:52:12;;;;;;;4.57;4.17;;;16.90;99.90;;;;;;5072141;28;20404;-68
2023/06/06 04:54:39;;;;;;;4.27;3.87;;;17.00;99.90;;;;;;5071584;28;20396;-68
2023/06/06 04:57:09;;;;;;;3.97;3.50;;;17.00;99.90;;;;;;5071823;28;20439;-68
2023/06/06 04:59:37;;;;;;;4.83;4.37;;;17.10;99.90;;;;;;5072072;28;20803;-69
2023/06/06 05:02:03;;;;;;;4.90;4.50;;;17.20;99.90;;;;;;5072004;28;20427;-68
2023/06/06 05:04:29;;;;;;;4.73;4.10;;;17.20;99.90;;;;;;5073849;28;20452;-68
2023/06/06 05:06:56;;;;;;;4.40;4.10;;;17.30;99.90;;;;;;5075800;28;20408;-68
2023/06/06 05:09:21;;;;;;;5.43;4.53;;;17.40;99.90;;;;;;5075061;28;20412;-69
2023/06/06 05:11:49;;;;;;;4.93;4.53;;;17.50;99.90;;;;;;5075274;28;21071;-69
2023/06/06 05:14:15;;;;;;;4.73;4.30;;;17.50;99.90;;;;;;5075085;28;20173;-67
2023/06/06 05:16:41;;;;;;;5.13;4.30;;;17.60;99.90;;;;;;5075095;28;20408;-68
2023/06/06 05:19:07;;;;;;;4.87;4.37;;;17.70;99.90;;;;;;5075295;28;20768;-67
2023/06/06 05:21:33;;;;;;;6.93;4.73;;;17.80;99.90;;;;;;5126695;22;20565;-70
2023/06/06 05:23:59;;;;;;;5.77;4.23;;;17.90;99.90;;;;;;5097877;28;20556;-68
2023/06/06 05:26:25;;;;;;;4.73;4.30;;;18.00;99.90;;;;;;5097523;28;20489;-68
2023/06/06 05:28:51;;;;;;;5.57;4.40;;;18.10;99.90;;;;;;5115903;28;20179;-68
2023/06/06 05:31:20;;;;;;;5.03;4.53;;;18.20;99.90;;;;;;5115897;28;20180;-68
2023/06/06 05:33:46;;;;;;;5.10;4.20;;;18.30;99.90;;;;;;5115899;28;20152;-68
2023/06/06 05:36:12;;;;;;;5.07;4.60;;;18.50;99.90;;;;;;5115976;28;20395;-69
2023/06/06 05:38:38;;;;;;;4.70;4.30;;;18.60;99.90;;;;;;5116050;28;20441;-68
2023/06/06 05:41:03;;;;;;;7.57;4.57;;;18.70;99.90;;;;;;5115477;28;20189;-68
2023/06/06 05:43:31;;;;;;;4.50;4.10;;;18.70;99.90;;;;;;5115697;28;20623;-68
2023/06/06 05:45:57;;;;;;;4.93;4.53;;;18.60;99.90;;;;;;5115714;28;20181;-68
2023/06/06 05:48:22;;;;;;;6.03;5.27;;;18.60;99.90;;;;;;5115643;28;20461;-68
2023/06/06 05:50:48;;;;;;;8.97;5.50;;;18.60;99.90;;;;;;5115571;28;20423;-68
2023/06/06 05:53:14;;;;;;;5.80;5.07;;;18.50;99.90;;;;;;5115945;28;20263;-68
2023/06/06 05:55:39;;;;;;;4.73;4.33;;;18.40;99.90;;;;;;5115491;28;20169;-69
2023/06/06 05:58:05;;;;;;;4.93;4.50;;;18.60;99.90;;;;;;5115305;28;20401;-69
2023/06/06 06:00:33;;;;;;;5.00;4.60;;;18.90;99.90;;;;;;5115443;28;20562;-69
2023/06/06 06:03:00;;;;;;;5.40;4.90;;;18.90;99.90;;;;;;5115552;28;20265;-69
2023/06/06 06:05:30;;;;;;;5.53;5.07;;;19.00;99.90;;;;;;5115187;28;20444;-69
2023/06/06 06:07:59;;;;;;;6.03;5.50;;;18.60;99.90;;;;;;5115595;28;20524;-69
2023/06/06 06:10:25;;;;;;;5.70;4.67;;;18.70;99.90;;;;;;5112734;28;20505;-68
2023/06/06 06:12:51;;;;;;;6.07;5.07;;;18.90;99.90;;;;;;5112724;28;20411;-69
2023/06/06 06:15:17;;;;;;;5.67;5.03;;;19.10;99.90;;;;;;5114364;28;20456;-69
2023/06/06 06:17:42;;;;;;;6.97;6.03;;;19.00;99.90;;;;;;5114987;28;20177;-69
2023/06/06 06:20:09;;;;;;;5.37;4.93;;;19.10;99.90;;;;;;5114905;28;20291;-69
2023/06/06 06:22:36;;;;;;;7.80;4.90;;;19.40;99.90;;;;;;5115335;28;20149;-69
2023/06/06 06:25:08;;;;;;;9.27;5.00;;;19.40;99.90;;;;;;5114764;28;20854;-69
2023/06/06 06:27:35;;;;;;;8.00;5.03;;;19.40;99.90;;;;;;5115214;28;20470;-69
2023/06/06 06:30:01;;;;;;;6.03;4.50;;;19.20;99.90;;;;;;5115092;28;20422;-69
2023/06/06 06:32:27;;;;;;;6.77;5.00;;;19.10;99.90;;;;;;5115277;28;20897;-69
2023/06/06 06:34:53;;;;;;;5.27;4.77;;;19.40;99.90;;;;;;5114733;28;20168;-68
2023/06/06 06:37:18;;;;;;;7.30;4.93;;;19.40;99.90;;;;;;5114693;28;20676;-69
2023/06/06 06:39:45;;;;;;;5.60;5.00;;;19.50;99.90;;;;;;5114260;28;20169;-68
2023/06/06 06:42:11;;;;;;;5.80;4.90;;;19.30;99.90;;;;;;5114709;28;20206;-69
2023/06/06 06:44:36;;;;;;;4.90;4.50;;;19.70;99.90;;;;;;5114166;28;20858;-69
2023/06/06 06:47:03;;;;;;;5.47;4.67;;;19.80;99.90;;;;;;5114620;28;20168;-69
2023/06/06 06:49:29;;;;;;;6.43;4.80;;;19.90;99.90;;;;;;5114151;28;20226;-69
2023/06/06 06:51:56;;;;;;;9.50;6.20;;;20.00;99.90;;;;;;5114475;28;20419;-70
2023/06/06 06:54:24;;;;;;;5.90;5.30;;;20.20;99.90;;;;;;5114416;28;20944;-70
2023/06/06 06:56:51;;;;;;;4.67;4.27;;;20.10;99.90;;;;;;5114156;28;20512;-70
2023/06/06 06:59:17;;;;;;;6.23;5.30;;;20.20;99.90;;;;;;5114210;28;20830;-70
2023/06/06 07:01:47;;;;;;;5.50;5.00;;;20.20;99.90;;;;;;5114020;28;20426;-69
2023/06/06 07:04:13;;;;;;;5.60;4.83;;;20.20;99.90;;;;;;5114514;28;20580;-69
2023/06/06 07:06:39;;;;;;;5.53;5.03;;;20.00;99.90;;;;;;5113812;28;20455;-68
2023/06/06 07:09:05;;;;;;;6.53;4.97;;;20.10;99.90;;;;;;5114016;28;20405;-68
2023/06/06 07:11:31;;;;;;;4.20;3.80;;;20.10;99.90;;;;;;5113847;28;20430;-70
2023/06/06 07:13:56;;;;;;;4.83;4.40;;;20.20;99.90;;;;;;5113783;28;20395;-70
2023/06/06 07:16:25;;;;;;;4.57;4.17;;;20.20;99.90;;;;;;5114639;28;20172;-70
2023/06/06 07:18:52;;;;;;;5.67;4.80;;;20.40;99.90;;;;;;5114525;28;20611;-71
2023/06/06 07:21:21;;;;;;;4.73;3.87;;;20.50;99.90;;;;;;5113780;28;20441;-70
2023/06/06 07:23:48;;;;;;;5.43;4.00;;;20.30;99.90;;;;;;5113925;28;20481;-70
2023/06/06 07:26:16;;;;;;;5.57;5.07;;;20.50;99.90;;;;;;5113637;28;20402;-70
2023/06/06 07:28:43;;;;;;;5.40;4.60;;;20.60;99.90;;;;;;5112748;28;20391;-68
2023/06/06 07:31:08;;;;;;;5.63;4.70;;;20.50;99.90;;;;;;5113602;28;20429;-69
2023/06/06 07:33:34;;;;;;;4.43;4.03;;;20.50;99.90;;;;;;5113729;28;20399;-68
2023/06/06 07:36:00;;;;;;;4.50;4.10;;;20.70;99.90;;;;;;5113785;28;20647;-68
2023/06/06 07:38:26;;;;;;;5.13;4.40;;;20.50;99.90;;;;;;5113845;28;20168;-69
2023/06/06 07:40:51;;;;;;;5.27;4.40;;;20.40;99.90;;;;;;5113369;28;20542;-70
2023/06/06 07:43:17;;;;;;;4.70;3.57;;;20.60;99.90;;;;;;5113752;28;20414;-68
2023/06/06 07:45:42;;;;;;;5.57;4.20;;;20.50;99.90;;;;;;5113975;28;20723;-68
2023/06/06 07:48:08;;;;;;;4.90;4.33;;;20.70;99.90;;;;;;5113596;28;20171;-69
2023/06/06 07:50:34;;;;;;;9.47;5.20;;;20.70;99.90;;;;;;5113507;28;20647;-69
2023/06/06 07:52:59;;;;;;;6.00;4.40;;;20.60;99.70;;;;;;5113372;28;20157;-68
2023/06/06 07:55:25;;;;;;;6.30;4.67;;;20.60;99.90;;;;;;5113015;28;20164;-70
2023/06/06 07:57:51;;;;;;;4.57;3.97;;;20.80;99.90;;;;;;5112990;28;20631;-69
2023/06/06 08:00:16;;;;;;;6.00;3.97;;;20.90;99.30;;;;;;5113217;28;20196;-69
2023/06/06 08:02:42;;;;;;;4.23;3.73;;;20.90;99.10;;;;;;5113187;28;20180;-69
2023/06/06 08:05:08;;;;;;;4.43;4.03;;;20.80;98.80;;;;;;5113312;28;20218;-69
2023/06/06 08:07:36;;;;;;;10.63;3.90;;;20.90;99.00;;;;;;5113389;28;20433;-69
2023/06/06 08:10:02;;;;;;;4.90;4.00;;;21.10;98.30;;;;;;5113255;28;20467;-69
2023/06/06 08:12:28;;;;;;;3.83;3.43;;;20.90;98.40;;;;;;5113609;28;20490;-69
2023/06/06 08:14:53;;;;;;;4.50;3.33;;;21.00;98.30;;;;;;5113036;28;20437;-69
2023/06/06 08:17:19;;;;;;;3.47;3.17;;;21.20;97.80;;;;;;5112570;28;20666;-69
2023/06/06 08:19:44;;;;;;;3.97;3.67;;;21.40;97.60;;;;;;5113117;28;20646;-69
2023/06/06 08:22:10;;;;;;;4.90;4.40;;;21.50;97.40;;;;;;5113186;28;20521;-69
2023/06/06 08:24:37;;;;;;;4.80;4.40;;;21.70;97.30;;;;;;5112775;28;20188;-69
2023/06/06 08:27:03;;;;;;;4.13;3.50;;;21.40;97.70;;;;;;5112700;28;20206;-69
2023/06/06 08:29:28;;;;;;;4.43;4.00;;;21.40;98.10;;;;;;5112749;28;20402;-69
2023/06/06 08:31:54;;;;;;;4.23;3.87;;;21.50;98.30;;;;;;5112864;28;20233;-69
2023/06/06 08:34:21;;;;;;;4.53;4.13;;;21.50;97.90;;;;;;5113162;28;20168;-70
2023/06/06 08:36:48;;;;;;;4.17;3.77;;;21.30;98.10;;;;;;5112790;28;20176;-69
2023/06/06 08:39:13;;;;;;;5.93;4.97;;;21.30;97.70;;;;;;5115061;28;20430;-69
2023/06/06 08:41:48;;;;;;;6.33;4.40;;;21.60;97.80;;;;;;5116276;28;20433;-69
2023/06/06 08:44:14;;;;;;;5.53;4.13;;;21.70;97.40;;;;;;5116683;28;20180;-69
2023/06/06 08:46:41;;;;;;;4.40;4.00;;;21.70;97.20;;;;;;5116826;28;20425;-68
2023/06/06 08:49:08;;;;;;;5.20;4.80;;;21.70;96.80;;;;;;5116618;28;20455;-68
2023/06/06 08:51:34;;;;;;;4.97;4.47;;;21.60;96.80;;;;;;5116780;28;20801;-68
2023/06/06 08:54:01;;;;;;;4.03;3.73;;;21.40;97.10;;;;;;5116959;28;20476;-68
2023/06/06 08:56:27;;;;;;;5.37;4.70;;;21.60;97.10;;;;;;5116525;28;20402;-68
2023/06/06 08:58:53;;;;;;;4.93;4.43;;;21.80;96.90;;;;;;5116641;28;20454;-68
2023/06/06 09:01:20;;;;;;;5.17;4.67;;;21.80;97.20;;;;;;5116355;28;20430;-68
2023/06/06 09:03:48;;;;;;;4.63;4.23;;;21.70;97.00;;;;;;5116489;28;20413;-68
2023/06/06 09:06:16;;;;;;;7.23;4.63;;;21.70;97.50;;;;;;5116620;28;20406;-68
2023/06/06 09:08:43;;;;;;;4.80;4.40;;;21.80;97.50;;;;;;5116759;28;20402;-68
2023/06/06 09:11:09;;;;;;;5.93;4.37;;;22.00;97.70;;;;;;5115950;28;20437;-68
2023/06/06 09:13:35;;;;;;;4.60;4.20;;;22.20;97.00;;;;;;5116216;28;20394;-68
2023/06/06 09:16:04;;;;;;;5.13;4.40;;;22.00;96.90;;;;;;5117396;28;20915;-68
2023/06/06 09:18:32;;;;;;;4.87;4.47;;;22.10;96.90;;;;;;5097859;28;20647;-68
2023/06/06 09:20:58;;;;;;;4.97;4.57;;;22.30;95.50;;;;;;5116250;28;20541;-68
2023/06/06 09:23:29;;;;;;;7.30;4.07;;;22.50;96.00;;;;;;5116520;28;20434;-68
2023/06/06 09:25:55;;;;;;;6.43;5.23;;;22.50;95.10;;;;;;5115792;28;20238;-68
2023/06/06 09:28:20;;;;;;;7.20;4.87;;;22.60;95.40;;;;;;5116032;28;20819;-68
2023/06/06 09:30:46;;;;;;;4.47;4.03;;;22.70;95.20;;;;;;5116109;28;20181;-68
2023/06/06 09:33:14;;;;;;;4.43;4.00;;;22.70;94.70;;;;;;5116162;28;20199;-68
2023/06/06 09:35:43;;;;;;;4.20;3.90;;;22.70;94.50;;;;;;5116008;28;20180;-68
2023/06/06 09:38:16;;;;;;;4.63;4.23;;;22.90;93.70;;;;;;5116369;28;20426;-68
2023/06/06 09:40:44;;;;;;;4.60;4.20;;;22.90;93.90;;;;;;5115547;28;20452;-68
2023/06/06 09:43:10;;;;;;;8.33;4.10;;;23.00;94.80;;;;;;5115794;28;20406;-68
2023/06/06 09:45:48;;;;;;;5.50;4.50;;;23.20;93.80;;;;;;5115863;28;20447;-68
2023/06/06 09:48:23;;;;;;;5.03;4.17;;;23.30;93.50;;;;;;5115847;28;20154;-68
2023/06/06 09:50:49;;;;;;;4.20;3.80;;;23.60;93.00;;;;;;5115297;28;20509;-69
2023/06/06 09:53:15;;;;;;;4.93;3.97;;;23.80;92.20;;;;;;5115727;28;20422;-68
2023/06/06 09:55:42;;;;;;;5.20;4.23;;;23.80;91.50;;;;;;5115390;28;20835;-68
2023/06/06 09:58:11;;;;;;;5.10;3.40;;;23.80;90.60;;;;;;5115464;28;20403;-68
2023/06/06 10:00:38;;;;;;;4.90;4.40;;;23.80;90.30;;;;;;5115647;28;20423;-69
2023/06/06 10:03:06;;;;;;;6.73;4.70;;;23.60;89.30;;;;;;5116040;28;20398;-68
2023/06/06 10:05:32;;;;;;;4.37;3.97;;;23.50;90.70;;;;;;5115482;28;20987;-68
2023/06/06 10:07:58;;;;;;;4.90;4.40;;;23.50;88.70;;;;;;5097072;28;20467;-68
2023/06/06 10:10:24;;;;;;;4.90;4.50;;;23.40;90.00;;;;;;5115038;28;20234;-68
2023/06/06 10:12:53;;;;;;;5.50;4.70;;;23.50;90.00;;;;;;5115439;28;20471;-68
2023/06/06 10:15:20;;;;;;;5.20;4.43;;;23.60;90.20;;;;;;5115066;28;20401;-68
2023/06/06 10:17:46;;;;;;;4.00;3.70;;;23.50;90.10;;;;;;5115160;28;20398;-68
2023/06/06 10:20:12;;;;;;;5.30;4.23;;;23.70;89.60;;;;;;5115507;28;20442;-68
2023/06/06 10:22:39;;;;;;;5.43;4.40;;;23.70;89.20;;;;;;5115564;28;20588;-68
2023/06/06 10:25:09;;;;;;;4.27;3.30;;;23.90;88.70;;;;;;5115077;28;20446;-68
2023/06/06 10:27:50;;;;;;;5.43;4.13;;;24.00;89.60;;;;;;5114592;28;20446;-69
2023/06/06 10:30:44;;;;;;;6.80;5.03;;;24.10;88.20;;;;;;5114689;28;20414;-69
2023/06/06 10:33:17;;;;;;;5.23;4.70;;;24.10;87.60;;;;;;5115042;28;20398;-68
2023/06/06 10:35:44;;;;;;;4.27;3.87;;;24.40;89.30;;;;;;5114873;28;20405;-69
2023/06/06 10:38:10;;;;;;;4.37;3.97;;;24.30;88.10;;;;;;5114404;28;20862;-68
2023/06/06 10:40:53;;;;;;;4.07;3.40;;;24.70;87.60;;;;;;5114535;28;20422;-68
2023/06/06 10:43:35;;;;;;;4.40;3.70;;;24.90;86.60;;;;;;5114994;28;20550;-68
2023/06/06 10:46:02;;;;;;;4.97;4.10;;;24.80;84.70;;;;;;5114545;28;20442;-69
2023/06/06 10:48:41;;;;;;;4.23;3.83;;;25.00;84.20;;;;;;5114916;28;20782;-68
2023/06/06 10:51:31;;;;;;;6.53;4.33;;;25.20;84.40;;;;;;5114552;28;20441;-68
2023/06/06 10:54:15;;;;;;;4.40;3.60;;;25.00;83.60;;;;;;5107187;28;20544;-67
2023/06/06 10:56:54;;;;;;;6.10;4.20;;;25.30;83.90;;;;;;5114478;28;20896;-68
2023/06/06 10:59:34;;;;;;;5.77;4.70;;;25.50;82.20;;;;;;5114336;28;20409;-68
2023/06/06 11:02:00;;;;;;;5.10;4.20;;;25.60;82.00;;;;;;5114329;28;20451;-68
2023/06/06 11:04:27;;;;;;;4.60;4.20;;;25.70;84.20;;;;;;5114846;28;20434;-68
2023/06/06 11:06:58;;;;;;;4.40;4.00;;;25.70;79.70;;;;;;5114166;28;20244;-68
2023/06/06 11:09:32;;;;;;;4.37;3.97;;;25.00;77.40;;;;;;5113372;28;20398;-68
2023/06/06 11:12:14;;;;;;;4.10;3.50;;;25.10;77.10;;;;;;5113919;28;20549;-68
2023/06/06 11:15:05;;;;;;;4.50;4.03;;;25.20;77.10;;;;;;5113949;28;20402;-68
2023/06/06 11:17:49;;;;;;;4.37;4.00;;;25.70;80.20;;;;;;5114758;28;20764;-68
2023/06/06 11:20:20;;;;;;;5.30;4.00;;;26.30;77.90;;;;;;5113804;28;20540;-68
2023/06/06 11:22:51;;;;;;;5.90;4.20;;;26.20;74.10;;;;;;5119954;22;20486;-69
2023/06/06 11:25:23;;;;;;;4.83;4.40;;;26.20;75.40;;;;;;5092538;28;20814;-67
2023/06/06 11:27:49;;;;;;;4.37;3.97;;;26.00;72.90;;;;;;5092764;28;20424;-68
2023/06/06 11:30:15;;;;;;;4.57;4.00;;;25.50;74.30;;;;;;5092797;28;20987;-68
2023/06/06 11:32:41;;;;;;;5.07;4.50;;;25.20;75.70;;;;;;5092970;28;20185;-68
2023/06/06 11:35:08;;;;;;;4.60;4.17;;;25.00;78.30;;;;;;5093000;28;20192;-68
2023/06/06 11:37:33;;;;;;;4.37;3.97;;;25.40;78.10;;;;;;5093198;28;20842;-68
2023/06/06 11:40:09;;;;;;;4.87;4.47;;;25.90;76.50;;;;;;5093358;28;20465;-67
2023/06/06 11:42:34;;;;;;;6.17;4.60;;;27.30;73.50;;;;;;5092447;28;20215;-68
2023/06/06 11:45:00;;;;;;;5.40;4.10;;;26.80;72.90;;;;;;5092563;28;20439;-67
2023/06/06 11:47:33;;;;;;;4.73;4.23;;;27.00;71.60;;;;;;5092655;28;20222;-68
2023/06/06 11:49:58;;;;;;;4.20;3.90;;;26.50;72.60;;;;;;5093239;28;20570;-67
2023/06/06 11:52:24;;;;;;;4.43;3.87;;;28.30;70.70;;;;;;5092563;28;20415;-68
2023/06/06 11:55:04;;;;;;;5.73;4.03;;;29.40;65.90;;;;;;5093002;28;20184;-68
2023/06/06 11:57:32;;;;;;;5.10;4.10;;;28.70;66.00;;;;;;5092572;28;20142;-68
2023/06/06 12:00:04;;;;;;;4.97;4.30;;;27.80;67.40;;;;;;5092427;28;20400;-68
2023/06/06 12:02:29;;;;;;;4.13;3.60;;;27.50;68.20;;;;;;5092657;28;20451;-68
2023/06/06 12:04:55;;;;;;;3.70;3.37;;;29.50;63.20;;;;;;5092741;28;20490;-68
2023/06/06 12:07:22;;;;;;;4.53;3.10;;;29.80;55.00;;;;;;5092817;28;20157;-68
2023/06/06 12:10:01;;;;;;;6.70;4.03;;;29.10;54.20;;;;;;5092455;28;20164;-68
2023/06/06 12:12:26;;;;;;;6.40;4.40;;;28.20;58.80;;;;;;5092252;28;20820;-68
2023/06/06 12:14:59;;;;;;;4.33;3.70;;;28.10;59.10;;;;;;5091693;28;20404;-68
2023/06/06 12:17:26;;;;;;;4.00;3.70;;;28.50;59.10;;;;;;5092080;28;20169;-68
2023/06/06 12:19:56;;;;;;;4.57;3.90;;;29.90;56.10;;;;;;5092604;28;20403;-67
2023/06/06 12:22:37;;;;;;;7.93;4.40;;;30.50;55.50;;;;;;5092268;28;20449;-68
2023/06/06 12:25:04;;;;;;;4.73;3.90;;;31.30;54.20;;;;;;5092100;28;20487;-68
2023/06/06 12:27:36;;;;;;;4.23;3.93;;;30.90;55.30;;;;;;5091774;28;20936;-68
2023/06/06 12:30:03;;;;;;;4.20;3.80;;;31.60;54.90;;;;;;5092295;28;20384;-69
2023/06/06 12:32:30;;;;;;;5.67;4.20;;;30.00;54.30;;;;;;5092060;28;20423;-68
2023/06/06 12:37:39;;;;;;;4.50;4.10;;;28.30;58.30;;;;;;5092687;28;20395;-69
2023/06/06 12:40:23;;;;;;;5.00;4.50;;;28.90;57.80;;;;;;5093084;28;20400;-68
2023/06/06 12:43:00;;;;;;;4.33;3.93;;;29.60;55.50;;;;;;5072274;28;20452;-68
2023/06/06 12:45:27;;;;;;;3.77;3.40;;;28.80;55.40;;;;;;5072176;28;20447;-69
2023/06/06 12:47:54;;;;;;;4.33;4.00;;;30.50;53.40;;;;;;5089384;28;20410;-68
2023/06/06 12:50:21;;;;;;;4.50;4.03;;;30.90;52.20;;;;;;5092880;28;20449;-69
2023/06/06 12:52:50;;;;;;;4.67;4.10;;;29.60;55.20;;;;;;5092822;28;20791;-68
2023/06/06 12:55:17;;;;;;;4.47;4.07;;;28.60;57.50;;;;;;5092978;28;20457;-68